createdAt,value
2022-10-09T00:04:06.197Z,4.30
2022-10-09T00:09:09.720Z,4.60
2022-10-09T00:14:13.135Z,5.10
2022-10-09T00:19:16.553Z,5.00
2022-10-09T00:24:19.976Z,4.70
2022-10-09T00:29:23.801Z,4.70
2022-10-09T00:34:28.347Z,4.60
2022-10-09T00:39:31.767Z,4.70
2022-10-09T00:44:57.591Z,5.00
2022-10-09T00:50:39.588Z,5.30
2022-10-09T00:55:43.692Z,5.30
2022-10-09T01:00:49.119Z,5.00
2022-10-09T01:05:52.714Z,5.50
2022-10-09T01:11:01.728Z,5.30
2022-10-09T01:16:30.145Z,5.40
2022-10-09T01:21:58.429Z,5.10
2022-10-09T01:27:10.371Z,5.40
2022-10-09T01:32:18.611Z,5.00
2022-10-09T01:37:23.621Z,5.10
2022-10-09T01:42:29.704Z,5.30
2022-10-09T01:47:33.150Z,4.70
2022-10-09T01:53:03.662Z,4.40
2022-10-09T01:58:31.847Z,4.70
2022-10-09T02:03:37.896Z,5.20
2022-10-09T02:08:43.927Z,5.00
2022-10-09T02:13:50.081Z,4.40
2022-10-09T02:19:28.807Z,3.80
2022-10-09T02:24:33.248Z,4.00
2022-10-09T02:29:40.272Z,4.90
2022-10-09T02:34:47.030Z,4.00
2022-10-09T02:39:50.566Z,3.50
2022-10-09T02:44:53.983Z,4.40
2022-10-09T02:49:57.501Z,3.90
2022-10-09T02:55:00.921Z,4.00
2022-10-09T03:00:05.264Z,4.10
2022-10-09T03:05:09.305Z,3.60
2022-10-09T03:10:12.715Z,3.50
2022-10-09T03:15:16.845Z,4.60
2022-10-09T03:20:21.516Z,4.00
2022-10-09T03:25:26.467Z,3.30
2022-10-09T03:30:29.966Z,4.40
2022-10-09T03:35:33.284Z,3.50
2022-10-09T03:40:36.701Z,3.50
2022-10-09T03:45:41.119Z,3.30
2022-10-09T03:50:44.562Z,2.90
2022-10-09T03:55:47.986Z,2.80
2022-10-09T04:00:52.909Z,3.30
2022-10-09T04:05:56.487Z,4.30
2022-10-09T04:11:04.118Z,3.80
2022-10-09T04:16:13.250Z,3.60
2022-10-09T04:21:17.798Z,3.00
2022-10-09T04:26:22.340Z,2.90
2022-10-09T04:31:26.634Z,2.60
2022-10-09T04:36:30.883Z,2.90
2022-10-09T04:41:38.285Z,2.90
2022-10-09T04:46:42.119Z,2.90
2022-10-09T04:51:45.643Z,2.50
2022-10-09T04:56:49.060Z,2.50
2022-10-09T05:01:52.378Z,2.80
2022-10-09T05:06:55.760Z,2.90
2022-10-09T05:12:07.301Z,2.70
2022-10-09T05:17:15.065Z,3.10
2022-10-09T05:22:18.951Z,2.40
2022-10-09T05:27:25.345Z,2.50
2022-10-09T05:32:30.084Z,2.80
2022-10-09T05:37:33.822Z,2.90
2022-10-09T05:42:39.171Z,3.20
2022-10-09T05:47:47.098Z,2.80
2022-10-09T05:52:52.459Z,2.90
2022-10-09T05:58:04.413Z,2.60
2022-10-09T06:03:10.169Z,2.30
2022-10-09T06:08:13.761Z,2.70
2022-10-09T06:13:17.696Z,2.90
2022-10-09T06:18:21.519Z,2.50
2022-10-09T06:23:34.849Z,3.30
2022-10-09T06:28:51.580Z,2.60
2022-10-09T06:34:05.140Z,2.70
2022-10-09T06:39:18.735Z,2.80
2022-10-09T06:44:25.278Z,3.00
2022-10-09T06:49:38.019Z,2.40
2022-10-09T06:55:28.856Z,2.10
2022-10-09T07:11:51.158Z,2.40
2022-10-09T07:17:15.007Z,3.00
2022-10-09T07:22:36.870Z,2.50
2022-10-09T07:27:53.552Z,2.70
2022-10-09T07:32:57.272Z,2.60
2022-10-09T07:38:00.898Z,2.10
2022-10-09T07:43:04.417Z,2.30
2022-10-09T07:48:13.799Z,3.30
2022-10-09T07:53:26.855Z,3.60
2022-10-09T07:58:31.477Z,2.40
2022-10-09T08:03:39.490Z,2.50
2022-10-09T08:08:50.682Z,3.80
2022-10-09T08:14:47.645Z,2.20
2022-10-09T08:25:40.500Z,2.30
2022-10-09T08:31:03.239Z,2.30
2022-10-09T08:36:17.832Z,2.00
2022-10-09T08:41:44.123Z,2.00
2022-10-09T08:47:03.967Z,2.20
2022-10-09T08:52:16.594Z,2.30
2022-10-09T08:57:46.221Z,2.00
2022-10-09T09:08:50.662Z,2.10
2022-10-09T09:14:10.472Z,2.50
2022-10-09T09:19:35.052Z,2.60
2022-10-09T09:24:50.648Z,1.90
2022-10-09T09:30:12.284Z,2.20
2022-10-09T09:35:33.513Z,2.10
2022-10-09T09:40:38.922Z,3.30
2022-10-09T09:45:45.462Z,2.60
2022-10-09T09:51:10.314Z,2.70
2022-10-09T09:56:20.543Z,2.40
2022-10-09T10:01:30.514Z,2.40
2022-10-09T10:06:42.731Z,2.30
2022-10-09T10:11:56.479Z,2.30
2022-10-09T10:17:02.411Z,2.60
2022-10-09T10:22:22.050Z,2.00
2022-10-09T10:32:37.687Z,2.30
2022-10-09T10:37:58.568Z,2.30
2022-10-09T10:48:25.604Z,2.20
2022-10-09T10:53:45.701Z,2.60
2022-10-09T10:59:28.314Z,2.00
2022-10-09T11:04:43.907Z,2.20
2022-10-09T11:09:48.410Z,2.60
2022-10-09T11:15:04.170Z,2.60
2022-10-09T11:20:54.750Z,1.70
2022-10-09T11:26:22.519Z,2.50
2022-10-09T11:31:56.619Z,2.00
2022-10-09T11:37:27.804Z,2.20
2022-10-09T11:42:32.238Z,2.70
2022-10-09T11:47:49.588Z,1.60
2022-10-09T11:53:24.058Z,1.70
2022-10-09T11:59:04.062Z,1.80
2022-10-09T12:04:14.014Z,2.10
2022-10-09T12:09:32.984Z,2.40
2022-10-09T12:14:42.853Z,1.90
2022-10-09T12:20:18.809Z,3.10
2022-10-09T12:25:41.162Z,1.90
2022-10-09T12:30:53.615Z,2.30
2022-10-09T12:36:24.020Z,2.50
2022-10-09T12:41:32.554Z,2.00
2022-10-09T12:46:38.685Z,1.90
2022-10-09T12:51:42.051Z,2.20
2022-10-09T12:56:47.415Z,2.40
2022-10-09T13:01:56.444Z,1.70
2022-10-09T13:07:06.024Z,1.70
2022-10-09T13:12:17.226Z,2.20
2022-10-09T13:17:37.546Z,1.50
2022-10-09T13:22:41.040Z,2.10
2022-10-09T13:27:44.663Z,1.40
2022-10-09T13:32:48.083Z,1.50
2022-10-09T13:37:53.070Z,1.70
2022-10-09T13:43:02.855Z,2.40
2022-10-09T13:48:15.634Z,2.50
2022-10-09T13:53:22.631Z,2.40
2022-10-09T13:58:27.355Z,3.40
2022-10-09T14:03:33.460Z,2.20
2022-10-09T14:08:36.885Z,2.20
2022-10-09T14:13:42.582Z,2.30
2022-10-09T14:18:45.981Z,2.30
2022-10-09T14:23:53.572Z,2.40
2022-10-09T14:29:00.480Z,2.80
2022-10-09T14:34:04.512Z,2.30
2022-10-09T14:39:18.377Z,2.40
2022-10-09T14:44:22.945Z,2.50
2022-10-09T14:49:39.775Z,3.50
2022-10-09T14:54:50.136Z,3.40
2022-10-09T15:00:06.486Z,2.80
2022-10-09T15:05:16.302Z,2.30
2022-10-09T15:10:31.013Z,2.10
2022-10-09T15:15:43.528Z,1.90
2022-10-09T15:20:52.452Z,2.40
2022-10-09T15:26:00.085Z,2.20
2022-10-09T15:31:09.882Z,2.40
2022-10-09T15:36:28.591Z,2.00
2022-10-09T15:42:02.910Z,3.00
2022-10-09T15:47:39.363Z,2.50
2022-10-09T15:52:49.372Z,3.00
2022-10-09T15:57:55.221Z,2.10
2022-10-09T16:03:03.143Z,2.10
2022-10-09T16:08:07.583Z,2.00
2022-10-09T16:13:13.484Z,1.80
2022-10-09T16:18:23.651Z,2.40
2022-10-09T16:23:30.427Z,1.90
2022-10-09T16:28:34.547Z,3.70
2022-10-09T16:33:38.202Z,5.00
2022-10-09T16:38:43.510Z,6.10
2022-10-09T16:43:55.109Z,6.00
2022-10-09T16:49:00.858Z,6.50
2022-10-09T16:54:07.491Z,4.80
2022-10-09T16:59:13.673Z,5.50
2022-10-09T17:04:17.803Z,5.10
2022-10-09T17:09:21.864Z,4.60
2022-10-09T17:14:26.408Z,4.50
2022-10-09T17:19:30.339Z,9.80
2022-10-09T17:24:37.921Z,11.20
2022-10-09T17:29:41.677Z,12.70
2022-10-09T17:34:46.428Z,13.30
2022-10-09T17:39:58.432Z,13.30
2022-10-09T17:45:03.091Z,16.30
2022-10-09T17:50:10.193Z,14.50
2022-10-09T17:55:17.193Z,12.70
2022-10-09T18:00:33.115Z,12.50
2022-10-09T18:05:41.836Z,12.30
2022-10-09T18:10:45.252Z,11.50
2022-10-09T18:15:51.138Z,11.60
2022-10-09T18:20:54.648Z,10.70
2022-10-09T18:26:15.311Z,10.30
2022-10-09T18:31:25.889Z,9.80
2022-10-09T18:36:50.342Z,10.00
2022-10-09T18:42:11.168Z,9.10
2022-10-09T18:47:19.348Z,8.90
2022-10-09T18:52:44.004Z,9.90
2022-10-09T18:58:02.047Z,9.70
2022-10-09T19:03:15.204Z,8.00
2022-10-09T19:08:31.391Z,10.20
2022-10-09T19:13:43.476Z,9.00
2022-10-09T19:19:18.862Z,9.00
2022-10-09T19:24:33.439Z,8.50
2022-10-09T19:29:41.352Z,8.90
2022-10-09T19:35:19.214Z,8.90
2022-10-09T19:40:30.959Z,8.50
2022-10-09T19:45:42.427Z,9.20
2022-10-09T19:50:51.921Z,8.20
2022-10-09T19:56:23.296Z,8.20
2022-10-09T20:01:40.538Z,8.00
2022-10-09T20:07:11.589Z,8.10
2022-10-09T20:12:26.169Z,8.50
2022-10-09T20:17:48.912Z,7.90
2022-10-09T20:22:56.089Z,7.50
2022-10-09T20:28:25.378Z,9.70
2022-10-09T20:33:36.679Z,8.00
2022-10-09T20:38:44.322Z,8.00
2022-10-09T20:43:59.472Z,8.80
2022-10-09T20:49:05.870Z,7.90
2022-10-09T20:54:19.403Z,7.60
2022-10-09T20:59:31.547Z,7.70
2022-10-09T21:04:35.176Z,8.30
2022-10-09T21:09:41.058Z,8.40
2022-10-09T21:15:00.947Z,7.80
2022-10-09T21:20:25.754Z,7.70
2022-10-09T21:25:52.638Z,7.20
2022-10-09T21:31:06.234Z,7.90
2022-10-09T21:37:16.435Z,7.50
2022-10-09T21:42:38.574Z,8.40
2022-10-09T21:48:05.597Z,7.10
2022-10-09T21:53:51.262Z,6.60
2022-10-09T22:04:31.076Z,7.50
2022-10-09T22:09:42.263Z,6.50
2022-10-09T22:15:15.770Z,7.60
2022-10-09T22:20:32.938Z,7.40
2022-10-09T22:26:05.419Z,6.60
2022-10-09T22:31:20.822Z,8.10
2022-10-09T22:36:26.467Z,6.10
2022-10-09T22:41:43.480Z,6.10
2022-10-09T22:46:59.687Z,7.90
2022-10-09T22:52:08.207Z,6.30
2022-10-09T22:57:29.338Z,6.50
2022-10-09T23:02:32.866Z,6.30
2022-10-09T23:07:39.055Z,6.40
2022-10-09T23:12:55.298Z,5.90
2022-10-09T23:18:00.934Z,7.20
2022-10-09T23:23:08.138Z,6.50
2022-10-09T23:28:14.972Z,6.50
2022-10-09T23:33:18.748Z,7.00
2022-10-09T23:38:25.768Z,6.20
2022-10-09T23:43:41.944Z,5.90
2022-10-09T23:48:50.356Z,6.40
2022-10-09T23:53:54.632Z,5.70
2022-10-09T23:59:00.303Z,6.00
